createdAt,value
2017-08-13T00:00:07.072Z,6.2
2017-08-13T00:01:09.565Z,6
2017-08-13T00:02:12.073Z,6.1
2017-08-13T00:03:14.579Z,6.1
2017-08-13T00:04:17.449Z,6.1
2017-08-13T00:05:20.305Z,6.1
2017-08-13T00:06:22.793Z,6.1
2017-08-13T00:07:25.300Z,6.2
2017-08-13T00:08:28.152Z,6.1
2017-08-13T00:09:30.649Z,6.1
2017-08-13T00:10:33.150Z,6.1
2017-08-13T00:11:35.644Z,6.1
2017-08-13T00:12:38.131Z,6.2
2017-08-13T00:13:40.977Z,6.1
2017-08-13T00:14:43.485Z,6.1
2017-08-13T00:15:45.971Z,6.1
2017-08-13T00:16:49.175Z,6.1
2017-08-13T00:17:51.684Z,6.1
2017-08-13T00:18:54.200Z,6
2017-08-13T00:19:57.053Z,6.1
2017-08-13T00:20:59.555Z,6
2017-08-13T00:22:02.073Z,6.1
2017-08-13T00:23:05.599Z,6.1
2017-08-13T00:24:09.118Z,6.1
2017-08-13T00:25:11.975Z,6.1
2017-08-13T00:26:14.817Z,6.1
2017-08-13T00:27:17.328Z,6.1
2017-08-13T00:28:20.181Z,6
2017-08-13T00:29:23.044Z,6.1
2017-08-13T00:30:25.895Z,6.1
2017-08-13T00:31:28.402Z,6
2017-08-13T00:32:30.895Z,6.1
2017-08-13T00:33:33.743Z,6.1
2017-08-13T00:34:36.253Z,6.1
2017-08-13T00:35:38.759Z,6.1
2017-08-13T00:36:41.592Z,6.1
2017-08-13T00:37:44.085Z,6.1
2017-08-13T00:38:46.607Z,6.1
2017-08-13T00:39:49.122Z,6.1
2017-08-13T00:40:51.971Z,6.1
2017-08-13T00:41:54.470Z,6.1
2017-08-13T00:42:56.988Z,6.1
2017-08-13T00:43:59.832Z,6.2
2017-08-13T00:45:03.020Z,6.1
2017-08-13T00:46:06.556Z,6.1
2017-08-13T00:47:09.389Z,6.1
2017-08-13T00:48:12.570Z,6.2
2017-08-13T00:49:15.405Z,6.1
2017-08-13T00:50:18.261Z,6.1
2017-08-13T00:51:21.111Z,6.2
2017-08-13T00:52:23.959Z,6
2017-08-13T00:53:26.805Z,6.2
2017-08-13T00:54:29.649Z,6.1
2017-08-13T00:55:32.152Z,6.2
2017-08-13T00:56:35.014Z,6.1
2017-08-13T00:57:37.517Z,6.1
2017-08-13T00:58:40.019Z,6.2
2017-08-13T00:59:42.531Z,6.2
2017-08-13T01:00:45.020Z,6.2
2017-08-13T01:01:47.536Z,6.2
2017-08-13T01:02:50.054Z,6.1
2017-08-13T01:03:52.913Z,6.2
2017-08-13T01:04:55.411Z,6.2
2017-08-13T01:05:58.247Z,6.1
2017-08-13T01:07:00.756Z,6.2
2017-08-13T01:08:03.601Z,6.1
2017-08-13T01:09:06.430Z,6.1
2017-08-13T01:10:09.290Z,6.2
2017-08-13T01:11:12.134Z,6.1
2017-08-13T01:12:14.642Z,6.2
2017-08-13T01:13:17.497Z,6.3
2017-08-13T01:14:20.353Z,6.2
2017-08-13T01:15:22.888Z,6.2
2017-08-13T01:16:25.393Z,6.2
2017-08-13T01:17:27.904Z,6.1
2017-08-13T01:18:30.408Z,6.2
2017-08-13T01:19:33.598Z,6.1
2017-08-13T01:20:36.113Z,6.2
2017-08-13T01:21:38.955Z,6.2
2017-08-13T01:22:41.788Z,6.1
2017-08-13T01:23:44.626Z,6.2
2017-08-13T01:24:47.153Z,6.1
2017-08-13T01:25:49.658Z,6.1
2017-08-13T01:26:52.181Z,6.2
2017-08-13T01:27:54.690Z,6.2
2017-08-13T01:28:57.209Z,6.2
2017-08-13T01:29:59.706Z,6.2
2017-08-13T01:31:02.224Z,6.1
2017-08-13T01:32:05.061Z,6.1
2017-08-13T01:33:07.572Z,6.1
2017-08-13T01:34:10.091Z,6.2
2017-08-13T01:35:12.938Z,6.1
2017-08-13T01:36:15.782Z,6.1
2017-08-13T01:37:18.286Z,6.1
2017-08-13T01:38:20.778Z,6.1
2017-08-13T01:39:23.645Z,6.1
2017-08-13T01:40:26.142Z,6.1
2017-08-13T01:41:28.647Z,6.1
2017-08-13T01:42:31.143Z,6.1
2017-08-13T01:43:33.643Z,6.1
2017-08-13T01:44:36.834Z,6.2
2017-08-13T01:45:39.335Z,6
2017-08-13T01:46:41.837Z,6.1
2017-08-13T01:47:44.686Z,6.1
2017-08-13T01:48:47.537Z,6.1
2017-08-13T01:49:50.698Z,6.1
2017-08-13T01:50:53.199Z,6.1
2017-08-13T01:51:56.048Z,6
2017-08-13T01:52:58.554Z,6.2
2017-08-13T01:54:01.744Z,6.1
2017-08-13T01:55:04.600Z,6.1
2017-08-13T01:56:07.122Z,6
2017-08-13T01:57:09.975Z,6.1
2017-08-13T01:58:12.484Z,6.1
2017-08-13T01:59:14.983Z,6.1
2017-08-13T02:00:18.181Z,6
2017-08-13T02:01:20.690Z,6
2017-08-13T02:02:23.524Z,6.1
2017-08-13T02:03:26.054Z,6.1
2017-08-13T02:04:28.564Z,6
2017-08-13T02:05:31.086Z,6.1
2017-08-13T02:06:33.586Z,6
2017-08-13T02:07:36.066Z,6.1
2017-08-13T02:08:38.575Z,6.1
2017-08-13T02:09:41.076Z,6.1
2017-08-13T02:10:43.927Z,6
2017-08-13T02:11:46.439Z,6
2017-08-13T02:12:49.267Z,6.1
2017-08-13T02:13:51.769Z,6.1
2017-08-13T02:14:54.295Z,6.1
2017-08-13T02:15:56.789Z,6.1
2017-08-13T02:16:59.297Z,6
2017-08-13T02:18:02.127Z,6.1
2017-08-13T02:19:04.650Z,6.1
2017-08-13T02:20:07.138Z,6.1
2017-08-13T02:21:09.991Z,6.1
2017-08-13T02:22:12.854Z,6.1
2017-08-13T02:23:15.344Z,6.1
2017-08-13T02:24:17.858Z,6.1
2017-08-13T02:25:20.354Z,6.1
2017-08-13T02:26:22.863Z,6
2017-08-13T02:27:25.440Z,6.1
2017-08-13T02:28:27.960Z,6.1
2017-08-13T02:29:30.458Z,6.1
2017-08-13T02:30:32.970Z,6.1
2017-08-13T02:31:35.836Z,6.2
2017-08-13T02:32:38.693Z,6.1
2017-08-13T02:33:41.542Z,6.1
2017-08-13T02:34:44.404Z,6.1
2017-08-13T02:35:46.918Z,6.1
2017-08-13T02:36:50.477Z,6.2
2017-08-13T02:37:53.335Z,6.1
2017-08-13T02:38:55.837Z,6.1
2017-08-13T02:39:58.351Z,6.1
2017-08-13T02:41:00.861Z,6.1
2017-08-13T02:42:03.371Z,6
2017-08-13T02:43:05.872Z,6.1
2017-08-13T02:44:08.374Z,6
2017-08-13T02:45:10.902Z,6.1
2017-08-13T02:46:13.411Z,6.1
2017-08-13T02:47:15.911Z,6
2017-08-13T02:48:18.420Z,6.1
2017-08-13T02:49:20.924Z,6
2017-08-13T02:50:23.822Z,6.1
2017-08-13T02:51:26.664Z,6.1
2017-08-13T02:52:29.536Z,6.1
2017-08-13T02:53:32.393Z,6
2017-08-13T02:54:35.252Z,6.1
2017-08-13T02:55:38.082Z,6
2017-08-13T02:56:40.607Z,6.1
2017-08-13T02:57:43.108Z,6.1
2017-08-13T02:58:45.615Z,6.1
2017-08-13T02:59:48.151Z,6.1
2017-08-13T03:00:50.645Z,6.1
2017-08-13T03:01:53.172Z,6.1
2017-08-13T03:02:56.361Z,6.1
2017-08-13T03:03:59.210Z,6.1
2017-08-13T03:05:02.733Z,6.1
2017-08-13T03:06:05.592Z,6.1
2017-08-13T03:07:08.429Z,6.1
2017-08-13T03:08:10.942Z,6.1
2017-08-13T03:09:13.438Z,6.1
2017-08-13T03:10:15.952Z,6.1
2017-08-13T03:11:18.452Z,6.1
2017-08-13T03:12:20.961Z,6.1
2017-08-13T03:13:23.809Z,6.1
2017-08-13T03:14:26.665Z,6.1
2017-08-13T03:15:29.158Z,6.1
2017-08-13T03:16:31.997Z,6.1
2017-08-13T03:17:34.499Z,6.1
2017-08-13T03:18:37.346Z,6.1
2017-08-13T03:19:39.823Z,6.1
2017-08-13T03:20:42.325Z,6.1
2017-08-13T03:21:44.860Z,6.1
2017-08-13T03:22:47.707Z,6.1
2017-08-13T03:23:50.218Z,6.1
2017-08-13T03:24:52.715Z,6.2
2017-08-13T03:25:55.201Z,6.1
2017-08-13T03:26:57.723Z,6.1
2017-08-13T03:28:00.228Z,6.1
2017-08-13T03:29:02.745Z,6.1
2017-08-13T03:30:05.604Z,6.1
2017-08-13T03:31:08.130Z,6.1
2017-08-13T03:32:10.997Z,6.1
2017-08-13T03:33:13.512Z,6.1
2017-08-13T03:34:16.349Z,6.1
2017-08-13T03:35:18.851Z,6.1
2017-08-13T03:36:22.031Z,6.1
2017-08-13T03:37:24.536Z,6.1
2017-08-13T03:38:27.030Z,6.1
2017-08-13T03:39:29.534Z,6.1
2017-08-13T03:40:32.036Z,6.1
2017-08-13T03:41:34.531Z,6.1
2017-08-13T03:42:37.039Z,6.2
2017-08-13T03:43:39.538Z,6.2
2017-08-13T03:44:42.049Z,6.2
2017-08-13T03:45:44.563Z,6.1
2017-08-13T03:46:47.076Z,6.2
2017-08-13T03:47:49.892Z,6.2
2017-08-13T03:48:52.751Z,6.1
2017-08-13T03:49:55.247Z,6.1
2017-08-13T03:50:57.777Z,6.1
2017-08-13T03:52:00.275Z,6.1
2017-08-13T03:53:02.773Z,6.1
2017-08-13T03:54:05.273Z,6.2
2017-08-13T03:55:08.128Z,6.1
2017-08-13T03:56:10.659Z,6.1
2017-08-13T03:57:13.152Z,6.2
2017-08-13T03:58:15.997Z,6.2
2017-08-13T03:59:18.496Z,6.2
2017-08-13T04:00:21.018Z,6.1
2017-08-13T04:01:23.510Z,6.1
2017-08-13T04:02:26.008Z,6.1
2017-08-13T04:03:28.869Z,6.2
2017-08-13T04:04:31.374Z,6.2
2017-08-13T04:05:33.879Z,6.2
2017-08-13T04:06:36.388Z,6.1
2017-08-13T04:07:38.898Z,6.2
2017-08-13T04:08:41.732Z,6.1
2017-08-13T04:09:44.561Z,6.2
2017-08-13T04:10:47.075Z,6.2
2017-08-13T04:11:49.929Z,6.2
2017-08-13T04:12:52.434Z,6.2
2017-08-13T04:13:54.926Z,6.2
2017-08-13T04:14:57.812Z,6.2
2017-08-13T04:16:00.319Z,6.2
2017-08-13T04:17:02.824Z,6.2
2017-08-13T04:18:05.313Z,6.2
2017-08-13T04:19:07.836Z,6.2
2017-08-13T04:20:10.339Z,6.1
2017-08-13T04:21:12.847Z,6.2
2017-08-13T04:22:15.343Z,6.2
2017-08-13T04:23:18.188Z,6.2
2017-08-13T04:24:20.683Z,6.2
2017-08-13T04:25:23.211Z,6.2
2017-08-13T04:26:26.028Z,6.2
2017-08-13T04:27:28.953Z,6.2
2017-08-13T04:28:32.147Z,6.2
2017-08-13T04:29:34.664Z,6.2
2017-08-13T04:30:37.504Z,6.2
2017-08-13T04:31:40.014Z,6.1
2017-08-13T04:32:42.526Z,6.2
2017-08-13T04:33:45.026Z,6.2
2017-08-13T04:34:48.201Z,6.1
2017-08-13T04:35:50.690Z,6.2
2017-08-13T04:36:54.226Z,6.2
2017-08-13T04:37:56.732Z,6.2
2017-08-13T04:38:59.242Z,6.2
2017-08-13T04:40:02.436Z,6.2
2017-08-13T04:41:04.937Z,6.2
2017-08-13T04:42:07.441Z,6.2
2017-08-13T04:43:09.974Z,6.2
2017-08-13T04:44:12.463Z,6.2
2017-08-13T04:45:14.971Z,6.2
2017-08-13T04:46:17.474Z,6.2
2017-08-13T04:47:19.989Z,6.2
2017-08-13T04:48:22.481Z,6.2
2017-08-13T04:49:24.981Z,6.2
2017-08-13T04:50:27.478Z,6.2
2017-08-13T04:51:29.988Z,6.2
2017-08-13T04:52:32.481Z,6.2
2017-08-13T04:53:34.996Z,6.2
2017-08-13T04:54:37.503Z,6.2
2017-08-13T04:55:40.012Z,6.2
2017-08-13T04:56:42.527Z,6.2
2017-08-13T04:57:45.025Z,6.2
2017-08-13T04:58:47.521Z,6.3
2017-08-13T04:59:50.047Z,6.2
2017-08-13T05:00:52.896Z,6.3
2017-08-13T05:01:55.386Z,6.3
2017-08-13T05:02:58.228Z,6.2
2017-08-13T05:04:00.744Z,6.2
2017-08-13T05:05:03.587Z,6.2
2017-08-13T05:06:06.098Z,6.3
2017-08-13T05:07:08.620Z,6.2
2017-08-13T05:08:11.135Z,6.3
2017-08-13T05:09:13.987Z,6.2
2017-08-13T05:10:16.483Z,6.2
2017-08-13T05:11:18.992Z,6.3
2017-08-13T05:12:21.839Z,6.2
2017-08-13T05:13:24.351Z,6.2
2017-08-13T05:14:26.866Z,6.2
2017-08-13T05:15:29.704Z,6.2
2017-08-13T05:16:32.215Z,6.2
2017-08-13T05:17:34.725Z,6.3
2017-08-13T05:18:37.228Z,6.2
2017-08-13T05:19:39.730Z,6.2
2017-08-13T05:20:42.234Z,6.2
2017-08-13T05:21:44.758Z,6.2
2017-08-13T05:22:47.607Z,6.3
2017-08-13T05:23:50.107Z,6.3
2017-08-13T05:24:52.975Z,6.2
2017-08-13T05:25:55.812Z,6.2
2017-08-13T05:26:58.306Z,6.2
2017-08-13T05:28:00.798Z,6.2
2017-08-13T05:29:03.308Z,6.3
2017-08-13T05:30:05.830Z,6.2
2017-08-13T05:31:08.678Z,6.2
2017-08-13T05:32:11.535Z,6.2
2017-08-13T05:33:14.376Z,6.2
2017-08-13T05:34:16.898Z,6.2
2017-08-13T05:35:19.397Z,6.2
2017-08-13T05:36:21.910Z,6.2
2017-08-13T05:37:24.420Z,6.2
2017-08-13T05:38:26.918Z,6.2
2017-08-13T05:39:30.440Z,6.3
2017-08-13T05:40:33.309Z,6.2
2017-08-13T05:41:35.832Z,6.3
2017-08-13T05:42:38.349Z,6.3
2017-08-13T05:43:40.850Z,6.3
2017-08-13T05:44:43.347Z,6.2
2017-08-13T05:45:45.847Z,6.2
2017-08-13T05:46:49.058Z,6.2
2017-08-13T05:47:51.563Z,6.2
2017-08-13T05:48:54.398Z,6.2
2017-08-13T05:49:56.911Z,6.2
2017-08-13T05:50:59.413Z,6.2
2017-08-13T05:52:01.911Z,6.2
2017-08-13T05:53:04.748Z,6.2
2017-08-13T05:54:07.607Z,6.2
2017-08-13T05:55:10.113Z,6.2
2017-08-13T05:56:12.616Z,6.2
2017-08-13T05:57:15.122Z,6.2
2017-08-13T05:58:17.614Z,6.2
2017-08-13T05:59:20.140Z,6.3
2017-08-13T06:00:22.979Z,6.2
2017-08-13T06:01:25.468Z,6.2
2017-08-13T06:02:27.988Z,6.2
2017-08-13T06:03:30.846Z,6.3
2017-08-13T06:04:33.360Z,6.2
2017-08-13T06:05:35.872Z,6.2
2017-08-13T06:06:38.729Z,6.2
2017-08-13T06:07:41.227Z,6.3
2017-08-13T06:08:43.732Z,6.3
2017-08-13T06:09:46.567Z,6.3
2017-08-13T06:10:49.069Z,6.2
2017-08-13T06:11:51.580Z,6.2
2017-08-13T06:12:54.074Z,6.3
2017-08-13T06:13:56.599Z,6.3
2017-08-13T06:14:59.457Z,6.2
2017-08-13T06:16:01.956Z,6.2
2017-08-13T06:17:04.475Z,6.3
2017-08-13T06:18:07.350Z,6.3
2017-08-13T06:19:10.187Z,6.3
2017-08-13T06:20:13.053Z,6.3
2017-08-13T06:21:15.912Z,6.3
2017-08-13T06:22:18.428Z,6.3
2017-08-13T06:23:20.931Z,6.3
2017-08-13T06:24:23.441Z,6.4
2017-08-13T06:25:25.953Z,6.3
2017-08-13T06:26:28.463Z,6.3
2017-08-13T06:27:31.011Z,6.3
2017-08-13T06:28:33.857Z,6.4
2017-08-13T06:29:36.360Z,6.4
2017-08-13T06:30:38.871Z,6.3
2017-08-13T06:31:41.372Z,6.3
2017-08-13T06:32:43.889Z,6.2
2017-08-13T06:33:46.736Z,6.3
2017-08-13T06:34:49.273Z,6.3
2017-08-13T06:35:51.767Z,6.3
2017-08-13T06:36:54.608Z,6.3
2017-08-13T06:37:57.105Z,6.3
2017-08-13T06:38:59.612Z,6.3
2017-08-13T06:40:02.489Z,6.3
2017-08-13T06:41:05.321Z,6.3
2017-08-13T06:42:07.842Z,6.4
2017-08-13T06:43:10.354Z,6.3
2017-08-13T06:44:12.862Z,6.3
2017-08-13T06:45:15.376Z,6.3
2017-08-13T06:46:17.893Z,6.3
2017-08-13T06:47:20.435Z,6.4
2017-08-13T06:48:22.949Z,6.3
2017-08-13T06:49:25.470Z,6.3
2017-08-13T06:50:27.971Z,6.3
2017-08-13T06:51:30.818Z,6.3
2017-08-13T06:52:33.331Z,6.3
2017-08-13T06:53:35.853Z,6.4
2017-08-13T06:54:39.059Z,6.4
2017-08-13T06:55:41.573Z,6.3
2017-08-13T06:56:44.069Z,6.3
2017-08-13T06:57:46.931Z,6.4
2017-08-13T06:58:49.468Z,6.4
2017-08-13T06:59:52.294Z,6.4
2017-08-13T07:00:54.809Z,6.4
2017-08-13T07:01:57.998Z,6.4
2017-08-13T07:03:00.839Z,6.4
2017-08-13T07:04:03.369Z,6.5
2017-08-13T07:05:06.215Z,6.4
2017-08-13T07:06:09.053Z,6.5
2017-08-13T07:07:11.904Z,6.5
2017-08-13T07:08:14.407Z,6.5
2017-08-13T07:09:16.917Z,6.5
2017-08-13T07:10:19.434Z,6.5
2017-08-13T07:11:21.944Z,6.5
2017-08-13T07:12:24.819Z,6.5
2017-08-13T07:13:27.341Z,6.5
2017-08-13T07:14:29.854Z,6.5
2017-08-13T07:15:32.349Z,6.5
2017-08-13T07:16:34.859Z,6.5
2017-08-13T07:17:37.386Z,6.5
2017-08-13T07:18:39.887Z,6.6
2017-08-13T07:19:42.738Z,6.5
2017-08-13T07:20:45.265Z,6.5
2017-08-13T07:21:47.803Z,6.5
2017-08-13T07:22:50.289Z,6.5
2017-08-13T07:23:52.818Z,6.5
2017-08-13T07:24:55.308Z,6.5
2017-08-13T07:25:57.826Z,6.5
2017-08-13T07:27:00.332Z,6.5
2017-08-13T07:28:03.190Z,6.5
2017-08-13T07:29:05.693Z,6.5
2017-08-13T07:30:08.548Z,6.6
2017-08-13T07:31:11.060Z,6.6
2017-08-13T07:32:13.576Z,6.6
2017-08-13T07:33:16.422Z,6.6
2017-08-13T07:34:18.930Z,6.6
2017-08-13T07:35:21.435Z,6.6
2017-08-13T07:36:23.970Z,6.6
2017-08-13T07:37:26.476Z,6.7
2017-08-13T07:38:29.345Z,6.7
2017-08-13T07:39:31.836Z,6.6
2017-08-13T07:40:34.368Z,6.7
2017-08-13T07:41:36.894Z,6.6
2017-08-13T07:42:39.744Z,6.6
2017-08-13T07:43:42.257Z,6.6
2017-08-13T07:44:44.778Z,6.7
2017-08-13T07:45:47.618Z,6.6
2017-08-13T07:46:50.118Z,6.5
2017-08-13T07:47:52.654Z,6.6
2017-08-13T07:48:55.483Z,6.6
2017-08-13T07:49:58.353Z,6.5
2017-08-13T07:51:00.887Z,6.6
2017-08-13T07:52:03.744Z,6.6
2017-08-13T07:53:06.247Z,6.6
2017-08-13T07:54:08.763Z,6.6
2017-08-13T07:55:11.274Z,6.6
2017-08-13T07:56:13.796Z,6.6
2017-08-13T07:57:16.658Z,6.6
2017-08-13T07:58:19.844Z,6.6
2017-08-13T07:59:22.357Z,6.6
2017-08-13T08:00:25.559Z,6.6
2017-08-13T08:01:29.087Z,6.7
2017-08-13T08:02:31.942Z,6.6
2017-08-13T08:03:34.441Z,6.6
2017-08-13T08:04:37.316Z,6.6
2017-08-13T08:05:39.831Z,6.6
2017-08-13T08:06:42.338Z,6.6
2017-08-13T08:07:44.853Z,6.6
2017-08-13T08:08:47.705Z,6.6
2017-08-13T08:09:50.210Z,6.6
2017-08-13T08:10:52.736Z,6.7
2017-08-13T08:11:55.270Z,6.6
2017-08-13T08:12:57.759Z,6.6
2017-08-13T08:14:00.272Z,6.6
2017-08-13T08:15:03.131Z,6.7
2017-08-13T08:16:05.652Z,6.6
2017-08-13T08:17:08.194Z,6.6
2017-08-13T08:18:11.062Z,6.7
2017-08-13T08:19:13.920Z,6.7
2017-08-13T08:20:16.430Z,6.7
2017-08-13T08:21:18.942Z,6.7
2017-08-13T08:22:21.477Z,6.7
2017-08-13T08:23:24.023Z,6.7
2017-08-13T08:24:26.551Z,6.7
2017-08-13T08:25:29.058Z,6.7
2017-08-13T08:26:31.901Z,6.8
2017-08-13T08:27:34.430Z,6.7
2017-08-13T08:28:37.301Z,6.7
2017-08-13T08:29:39.797Z,6.7
2017-08-13T08:30:42.337Z,6.6
2017-08-13T08:31:44.852Z,6.7
2017-08-13T08:32:47.701Z,6.7
2017-08-13T08:33:50.229Z,6.7
2017-08-13T08:34:52.747Z,6.7
2017-08-13T08:35:55.587Z,6.7
2017-08-13T08:36:58.104Z,6.7
2017-08-13T08:38:00.595Z,6.7
2017-08-13T08:39:03.845Z,6.7
2017-08-13T08:40:06.349Z,6.7
2017-08-13T08:41:08.867Z,6.7
2017-08-13T08:42:11.413Z,6.7
2017-08-13T08:43:14.258Z,6.7
2017-08-13T08:44:16.757Z,6.7
2017-08-13T08:45:19.266Z,6.7
2017-08-13T08:46:21.791Z,6.8
2017-08-13T08:47:24.319Z,6.8
2017-08-13T08:48:26.806Z,6.7
2017-08-13T08:49:29.563Z,6.7
2017-08-13T08:50:32.096Z,6.7
2017-08-13T08:51:35.001Z,6.7
2017-08-13T08:52:37.526Z,6.7
2017-08-13T08:53:42.710Z,6.8
2017-08-13T08:54:46.027Z,6.7
2017-08-13T08:55:48.562Z,6.8
2017-08-13T08:56:51.086Z,6.8
2017-08-13T08:57:53.609Z,6.8
2017-08-13T08:58:56.456Z,6.7
2017-08-13T08:59:58.968Z,6.8
2017-08-13T09:01:01.508Z,6.8
2017-08-13T09:02:04.018Z,6.8
2017-08-13T09:03:06.891Z,6.8
2017-08-13T09:04:10.171Z,6.8
2017-08-13T09:05:12.829Z,6.8
2017-08-13T09:06:15.540Z,6.8
2017-08-13T09:07:24.652Z,6.8
2017-08-13T09:08:27.178Z,6.8
2017-08-13T09:09:29.681Z,6.8
2017-08-13T09:10:32.198Z,6.8
2017-08-13T09:11:35.031Z,6.8
2017-08-13T09:12:37.893Z,6.8
2017-08-13T09:13:41.745Z,6.9
2017-08-13T09:14:44.263Z,6.8
2017-08-13T09:15:46.776Z,6.8
2017-08-13T09:16:49.630Z,6.8
2017-08-13T09:17:52.837Z,6.8
2017-08-13T09:18:55.367Z,6.9
2017-08-13T09:19:57.859Z,6.8
2017-08-13T09:21:00.706Z,6.8
2017-08-13T09:22:03.226Z,6.8
2017-08-13T09:23:05.730Z,6.8
2017-08-13T09:24:08.233Z,6.8
2017-08-13T09:25:10.735Z,6.8
2017-08-13T09:26:13.234Z,6.8
2017-08-13T09:27:15.752Z,6.8
2017-08-13T09:28:18.237Z,6.8
2017-08-13T09:29:20.754Z,6.9
2017-08-13T09:30:23.601Z,6.9
2017-08-13T09:31:26.112Z,6.8
2017-08-13T09:32:28.959Z,6.9
2017-08-13T09:33:31.798Z,6.9
2017-08-13T09:34:34.305Z,6.9
2017-08-13T09:35:37.159Z,7
2017-08-13T09:36:40.339Z,6.9
2017-08-13T09:37:42.838Z,7
2017-08-13T09:38:45.356Z,6.9
2017-08-13T09:39:49.009Z,6.9
2017-08-13T09:40:51.713Z,7
2017-08-13T09:41:54.217Z,6.9
2017-08-13T09:42:57.612Z,6.9
2017-08-13T09:44:00.109Z,7
2017-08-13T09:45:02.974Z,7
2017-08-13T09:46:05.482Z,6.9
2017-08-13T09:47:07.999Z,6.9
2017-08-13T09:48:10.516Z,7
2017-08-13T09:49:13.361Z,6.9
2017-08-13T09:50:15.875Z,6.9
2017-08-13T09:51:18.357Z,6.8
2017-08-13T09:52:20.871Z,6.9
2017-08-13T09:53:24.072Z,7
2017-08-13T09:54:26.919Z,7
2017-08-13T09:55:29.789Z,6.9
2017-08-13T09:56:32.315Z,7
2017-08-13T09:57:35.155Z,7.1
2017-08-13T09:58:37.684Z,7.1
2017-08-13T09:59:40.197Z,7.1
2017-08-13T10:00:42.725Z,7.2
2017-08-13T10:01:45.231Z,7
2017-08-13T10:02:48.074Z,7.1
2017-08-13T10:03:50.588Z,7.1
2017-08-13T10:04:53.440Z,7
2017-08-13T10:05:55.970Z,7.2
2017-08-13T10:06:58.476Z,7
2017-08-13T10:08:01.332Z,7.1
2017-08-13T10:09:03.828Z,7.1
2017-08-13T10:10:06.350Z,7.1
2017-08-13T10:11:09.199Z,7.1
2017-08-13T10:12:11.683Z,7.2
2017-08-13T10:13:14.166Z,7.1
2017-08-13T10:14:16.995Z,7.1
2017-08-13T10:15:19.475Z,7.1
2017-08-13T10:16:22.295Z,7.1
2017-08-13T10:17:24.770Z,7.1
2017-08-13T10:18:27.609Z,7.1
2017-08-13T10:19:30.097Z,7.1
2017-08-13T10:20:32.972Z,7.1
2017-08-13T10:21:36.163Z,7
2017-08-13T10:22:39.009Z,7.1
2017-08-13T10:23:41.843Z,7.1
2017-08-13T10:24:44.340Z,7.1
2017-08-13T10:25:46.829Z,7.1
2017-08-13T10:26:49.713Z,7.1
2017-08-13T10:27:52.902Z,7.1
2017-08-13T10:28:55.390Z,7.1
2017-08-13T10:29:57.902Z,7.2
2017-08-13T10:31:00.725Z,7.2
2017-08-13T10:32:03.225Z,7.1
2017-08-13T10:33:05.728Z,7.1
2017-08-13T10:34:08.560Z,7.1
2017-08-13T10:35:11.055Z,7.2
2017-08-13T10:36:13.586Z,7.2
2017-08-13T10:37:16.072Z,7.1
2017-08-13T10:38:18.581Z,7.1
2017-08-13T10:39:21.076Z,7.1
2017-08-13T10:40:23.911Z,7.1
2017-08-13T10:41:26.415Z,7.1
2017-08-13T10:42:29.268Z,7.1
2017-08-13T10:43:31.755Z,7.1
2017-08-13T10:44:34.259Z,7.1
2017-08-13T10:45:36.745Z,7
2017-08-13T10:46:39.241Z,7.1
2017-08-13T10:47:41.743Z,7.1
2017-08-13T10:48:44.245Z,7.1
2017-08-13T10:49:46.764Z,7
2017-08-13T10:50:49.607Z,7
2017-08-13T10:51:52.796Z,7
2017-08-13T10:52:55.294Z,6.9
2017-08-13T10:53:57.787Z,6.9
2017-08-13T10:55:00.290Z,7
2017-08-13T10:56:03.135Z,6.9
2017-08-13T10:57:05.975Z,6.9
2017-08-13T10:58:08.849Z,6.9
2017-08-13T10:59:12.016Z,6.9
2017-08-13T11:00:14.516Z,6.9
2017-08-13T11:01:17.033Z,7
2017-08-13T11:02:19.515Z,6.9
2017-08-13T11:03:22.046Z,6.9
2017-08-13T11:04:24.560Z,6.9
2017-08-13T11:05:28.434Z,6.9
2017-08-13T11:06:30.941Z,6.9
2017-08-13T11:07:33.426Z,6.9
2017-08-13T11:08:35.923Z,6.8
2017-08-13T11:09:38.438Z,6.9
2017-08-13T11:10:40.930Z,6.8
2017-08-13T11:11:43.425Z,6.8
2017-08-13T11:12:45.927Z,6.8
2017-08-13T11:13:48.773Z,6.8
2017-08-13T11:14:51.251Z,6.8
2017-08-13T11:15:53.753Z,6.8
2017-08-13T11:16:56.272Z,6.7
2017-08-13T11:17:59.113Z,6.8
2017-08-13T11:19:02.284Z,6.8
2017-08-13T11:20:05.126Z,6.7
2017-08-13T11:21:07.646Z,6.7
2017-08-13T11:22:10.163Z,6.7
2017-08-13T11:23:13.006Z,6.7
2017-08-13T11:24:16.275Z,6.7
2017-08-13T11:25:18.804Z,6.7
2017-08-13T11:26:21.341Z,6.7
2017-08-13T11:27:23.838Z,6.7
2017-08-13T11:28:27.032Z,6.7
2017-08-13T11:29:29.527Z,6.7
2017-08-13T11:30:32.379Z,6.7
2017-08-13T11:31:35.227Z,6.7
2017-08-13T11:32:38.083Z,6.8
2017-08-13T11:33:40.567Z,6.7
2017-08-13T11:34:43.085Z,6.7
2017-08-13T11:35:45.583Z,6.7
2017-08-13T11:36:48.427Z,6.7
2017-08-13T11:37:50.947Z,6.7
2017-08-13T11:38:53.442Z,6.7
2017-08-13T11:39:55.934Z,6.7
2017-08-13T11:40:58.434Z,6.7
2017-08-13T11:42:00.922Z,6.7
2017-08-13T11:43:03.420Z,6.7
2017-08-13T11:44:06.280Z,6.7
2017-08-13T11:45:08.773Z,6.7
2017-08-13T11:46:11.286Z,6.7
2017-08-13T11:47:14.140Z,6.8
2017-08-13T11:48:16.982Z,6.7
2017-08-13T11:49:19.820Z,6.8
2017-08-13T11:50:22.338Z,6.8
2017-08-13T11:51:25.169Z,6.8
2017-08-13T11:52:27.688Z,6.8
2017-08-13T11:53:30.205Z,6.8
2017-08-13T11:54:33.558Z,6.9
2017-08-13T11:55:36.069Z,6.8
2017-08-13T11:56:39.241Z,6.9
2017-08-13T11:57:41.726Z,6.9
2017-08-13T11:58:44.592Z,6.8
2017-08-13T11:59:47.074Z,6.9
2017-08-13T12:00:49.926Z,6.9
2017-08-13T12:01:52.441Z,6.8
2017-08-13T12:02:54.938Z,6.8
2017-08-13T12:03:57.475Z,6.9
2017-08-13T12:04:59.977Z,6.8
2017-08-13T12:06:02.838Z,6.8
2017-08-13T12:07:05.367Z,6.8
2017-08-13T12:08:07.858Z,6.8
2017-08-13T12:09:10.672Z,6.8
2017-08-13T12:10:13.178Z,6.8
2017-08-13T12:11:15.677Z,6.9
2017-08-13T12:12:18.214Z,6.9
2017-08-13T12:13:20.704Z,6.9
2017-08-13T12:14:23.887Z,6.9
2017-08-13T12:15:26.391Z,6.9
2017-08-13T12:16:28.891Z,7
2017-08-13T12:17:31.404Z,6.9
2017-08-13T12:18:33.929Z,7
2017-08-13T12:19:36.432Z,7
2017-08-13T12:20:38.931Z,7
2017-08-13T12:21:41.418Z,7
2017-08-13T12:22:43.918Z,7
2017-08-13T12:23:46.430Z,7.1
2017-08-13T12:24:48.944Z,7.1
2017-08-13T12:25:51.449Z,7.1
2017-08-13T12:26:53.944Z,7.1
2017-08-13T12:27:56.446Z,7.1
2017-08-13T12:28:58.952Z,7.1
2017-08-13T12:30:01.456Z,7.1
2017-08-13T12:31:04.316Z,7.2
2017-08-13T12:32:07.159Z,7.1
2017-08-13T12:33:10.024Z,7.2
2017-08-13T12:34:12.541Z,7.2
2017-08-13T12:35:15.052Z,7.2
2017-08-13T12:36:17.560Z,7.3
2017-08-13T12:37:20.074Z,7.2
2017-08-13T12:38:23.300Z,7.3
2017-08-13T12:39:25.850Z,7.3
2017-08-13T12:40:28.343Z,7.3
2017-08-13T12:41:30.848Z,7.3
2017-08-13T12:42:33.711Z,7.3
2017-08-13T12:43:36.213Z,7.3
2017-08-13T12:44:39.048Z,7.3
2017-08-13T12:45:41.893Z,7.3
2017-08-13T12:46:44.384Z,7.3
2017-08-13T12:47:46.868Z,7.3
2017-08-13T12:48:49.379Z,7.3
2017-08-13T12:49:51.881Z,7.4
2017-08-13T12:50:55.072Z,7.4
2017-08-13T12:51:58.244Z,7.3
2017-08-13T12:53:01.090Z,7.3
2017-08-13T12:54:03.587Z,7.3
2017-08-13T12:55:06.478Z,7.3
2017-08-13T12:56:08.966Z,7.3
2017-08-13T12:57:11.486Z,7.3
2017-08-13T12:58:14.006Z,7.3
2017-08-13T12:59:16.499Z,7.3
2017-08-13T13:00:19.343Z,7.3
2017-08-13T13:01:22.533Z,7.3
2017-08-13T13:02:25.027Z,7.3
2017-08-13T13:03:27.977Z,7.3
2017-08-13T13:04:30.491Z,7.3
2017-08-13T13:05:37.965Z,7.3
2017-08-13T13:06:40.727Z,7.3
2017-08-13T13:07:43.582Z,7.3
2017-08-13T13:08:46.079Z,7.4
2017-08-13T13:09:50.015Z,7.3
2017-08-13T13:10:55.650Z,7.3
2017-08-13T13:11:58.424Z,7.3
2017-08-13T13:13:01.591Z,7.3
2017-08-13T13:14:04.220Z,7.3
2017-08-13T13:15:07.059Z,7.3
2017-08-13T13:16:10.095Z,7.3
2017-08-13T13:17:13.011Z,7.3
2017-08-13T13:18:15.522Z,7.3
2017-08-13T13:19:18.379Z,7.3
2017-08-13T13:20:21.253Z,7.3
2017-08-13T13:21:24.429Z,7.3
2017-08-13T13:22:26.932Z,7.3
2017-08-13T13:23:29.437Z,7.2
2017-08-13T13:24:31.948Z,7.3
2017-08-13T13:25:34.464Z,7.3
2017-08-13T13:26:36.956Z,7.3
2017-08-13T13:27:39.488Z,7.3
2017-08-13T13:28:41.994Z,7.2
2017-08-13T13:29:44.500Z,7.2
2017-08-13T13:30:47.337Z,7.3
2017-08-13T13:31:50.215Z,7.2
2017-08-13T13:32:52.753Z,7.2
2017-08-13T13:33:55.275Z,7.2
2017-08-13T13:34:58.122Z,7.2
2017-08-13T13:36:00.627Z,7.2
2017-08-13T13:37:03.465Z,7.2
2017-08-13T13:38:06.326Z,7.2
2017-08-13T13:39:08.816Z,7.2
2017-08-13T13:40:11.330Z,7.2
2017-08-13T13:41:13.833Z,7.2
2017-08-13T13:42:16.351Z,7.2
2017-08-13T13:43:18.839Z,7.2
2017-08-13T13:44:21.341Z,7.2
2017-08-13T13:45:23.847Z,7.2
2017-08-13T13:46:26.355Z,7.2
2017-08-13T13:47:28.854Z,7.2
2017-08-13T13:48:31.739Z,7.2
2017-08-13T13:49:34.240Z,7.2
2017-08-13T13:50:36.743Z,7.2
2017-08-13T13:51:39.586Z,7.1
2017-08-13T13:52:42.090Z,7.1
2017-08-13T13:53:44.587Z,7.2
2017-08-13T13:54:47.091Z,7.1
2017-08-13T13:55:49.584Z,7
2017-08-13T13:56:52.427Z,7.1
2017-08-13T13:57:55.280Z,7.1
2017-08-13T13:58:57.794Z,7.1
2017-08-13T14:00:00.636Z,7.1
2017-08-13T14:01:03.488Z,7.1
2017-08-13T14:02:05.999Z,7.1
2017-08-13T14:03:08.860Z,7.1
2017-08-13T14:04:11.708Z,7.1
2017-08-13T14:05:14.199Z,7.1
2017-08-13T14:06:17.035Z,7.1
2017-08-13T14:07:19.534Z,7
2017-08-13T14:08:22.043Z,7
2017-08-13T14:09:24.567Z,7
2017-08-13T14:10:27.399Z,7
2017-08-13T14:11:29.909Z,7
2017-08-13T14:12:32.745Z,7
2017-08-13T14:13:35.269Z,7
2017-08-13T14:14:37.765Z,6.9
2017-08-13T14:15:40.616Z,6.9
2017-08-13T14:16:43.466Z,7
2017-08-13T14:17:45.964Z,6.9
2017-08-13T14:18:48.464Z,6.9
2017-08-13T14:19:50.984Z,6.9
2017-08-13T14:20:54.143Z,6.9
2017-08-13T14:21:56.641Z,6.9
2017-08-13T14:22:59.509Z,6.9
2017-08-13T14:24:02.344Z,6.9
2017-08-13T14:25:05.192Z,6.9
2017-08-13T14:26:07.701Z,6.9